Time;durP1;ratioP1;P1;durP2;ratioP2;P2;SDS_P1;SDS_P2;PMS_P1;PMS_P2;Temp;Humidity;BMP_temperature;BMP_pressure;BME280_temperature;BME280_humidity;BME280_pressure;Samples;Min_cycle;Max_cycle;Signal;HPM_P1;HPM_P2
2022/07/25 00:01:01;;;;;;;11.37;7.83;;;;;;;;;;5005386;28;20232;-76
2022/07/25 00:03:28;;;;;;;14.73;8.97;;;;;;;;;;5006655;28;20290;-76
2022/07/25 00:05:56;;;;;;;18.17;8.60;;;;;;;;;;5008375;28;20288;-74
2022/07/25 00:08:24;;;;;;;10.63;8.40;;;;;;;;;;5003109;28;20212;-75
2022/07/25 00:10:51;;;;;;;11.80;8.47;;;;;;;;;;5005305;28;20228;-75
2022/07/25 00:13:18;;;;;;;13.97;8.97;;;;;;;;;;5003756;28;20224;-76
2022/07/25 00:15:45;;;;;;;20.20;8.70;;;;;;;;;;5008347;28;20570;-75
2022/07/25 00:18:12;;;;;;;15.77;8.70;;;;;;;;;;5005219;28;20314;-75
2022/07/25 00:20:39;;;;;;;14.53;8.30;;;;;;;;;;5007898;28;20311;-75
2022/07/25 00:23:08;;;;;;;17.60;8.77;;;;;;;;;;5005323;28;20201;-75
2022/07/25 00:25:35;;;;;;;14.10;8.70;;;;;;;;;;5005433;28;20203;-75
2022/07/25 00:28:02;;;;;;;13.40;8.87;;;;;;;;;;5004772;28;20716;-75
2022/07/25 00:30:30;;;;;;;15.27;8.90;;;;;;;;;;5004455;28;20256;-76
2022/07/25 00:32:57;;;;;;;14.87;9.30;;;;;;;;;;5005070;28;20229;-75
2022/07/25 00:35:24;;;;;;;12.33;8.43;;;;;;;;;;5004852;28;20288;-75
2022/07/25 00:37:51;;;;;;;12.60;8.83;;;;;;;;;;5005031;28;20240;-74
2022/07/25 00:40:20;;;;;;;12.80;9.10;;;;;;;;;;5006755;28;20228;-74
2022/07/25 00:42:47;;;;;;;13.37;8.80;;;;;;;;;;5005247;28;20578;-75
2022/07/25 00:45:14;;;;;;;14.20;8.30;;;;;;;;;;5004336;28;20208;-74
2022/07/25 00:47:42;;;;;;;14.00;9.00;;;;;;;;;;5004574;28;20204;-75
2022/07/25 00:50:09;;;;;;;14.43;8.83;;;;;;;;;;5003094;28;20251;-75
2022/07/25 00:52:36;;;;;;;14.57;8.73;;;;;;;;;;5000914;28;20299;-75
2022/07/25 00:55:04;;;;;;;12.70;8.90;;;;;;;;;;5002816;28;20292;-75
2022/07/25 00:57:32;;;;;;;13.17;8.57;;;;;;;;;;5004906;28;20675;-75
2022/07/25 00:59:59;;;;;;;13.30;9.33;;;;;;;;;;5006001;28;20215;-75
2022/07/25 01:02:27;;;;;;;13.80;9.30;;;;;;;;;;5005460;28;20315;-75
2022/07/25 01:04:55;;;;;;;13.53;8.67;;;;;;;;;;5004974;28;20197;-75
2022/07/25 01:07:23;;;;;;;11.80;8.13;;;;;;;;;;5002829;28;20204;-76
2022/07/25 01:09:50;;;;;;;13.93;8.90;;;;;;;;;;5001448;28;20205;-75
2022/07/25 01:12:17;;;;;;;15.77;9.30;;;;;;;;;;5001560;28;20367;-76
2022/07/25 01:14:45;;;;;;;14.43;9.27;;;;;;;;;;5005278;28;20346;-76
2022/07/25 01:17:13;;;;;;;14.47;8.40;;;;;;;;;;5006505;28;20212;-75
2022/07/25 01:19:40;;;;;;;15.13;8.77;;;;;;;;;;5007250;28;20215;-76
2022/07/25 01:22:08;;;;;;;13.63;9.27;;;;;;;;;;5005660;28;20318;-76
2022/07/25 01:24:36;;;;;;;16.07;9.17;;;;;;;;;;5004507;28;20602;-75
2022/07/25 01:27:03;;;;;;;13.63;8.97;;;;;;;;;;5007014;28;20200;-75
2022/07/25 01:29:30;;;;;;;15.33;9.60;;;;;;;;;;5002735;28;20204;-75
2022/07/25 01:31:57;;;;;;;19.27;9.80;;;;;;;;;;5003957;28;20316;-75
2022/07/25 01:34:24;;;;;;;15.73;8.67;;;;;;;;;;5002491;28;20204;-75
2022/07/25 01:36:52;;;;;;;15.53;9.53;;;;;;;;;;5004709;28;20208;-75
2022/07/25 01:39:20;;;;;;;13.30;8.83;;;;;;;;;;5004124;28;20209;-76
2022/07/25 01:41:47;;;;;;;14.10;9.37;;;;;;;;;;5003363;28;20228;-76
2022/07/25 01:44:16;;;;;;;13.37;9.23;;;;;;;;;;5003560;28;20731;-76
2022/07/25 01:46:43;;;;;;;17.33;8.83;;;;;;;;;;5003674;28;20200;-75
2022/07/25 01:49:10;;;;;;;16.33;9.80;;;;;;;;;;5005841;28;20295;-75
2022/07/25 01:51:37;;;;;;;18.00;8.73;;;;;;;;;;5006091;28;20303;-75
2022/07/25 01:54:04;;;;;;;15.13;8.63;;;;;;;;;;5001976;28;20231;-75
2022/07/25 01:56:33;;;;;;;13.80;8.93;;;;;;;;;;5003678;28;20215;-76
2022/07/25 01:59:00;;;;;;;16.43;9.57;;;;;;;;;;5002850;28;20308;-76
2022/07/25 02:01:27;;;;;;;14.00;9.07;;;;;;;;;;4999741;28;20334;-76
2022/07/25 02:03:54;;;;;;;15.73;8.93;;;;;;;;;;5004537;28;20291;-75
2022/07/25 02:06:22;;;;;;;17.00;9.73;;;;;;;;;;5002236;28;20282;-75
2022/07/25 02:08:49;;;;;;;15.13;9.43;;;;;;;;;;4999677;28;20303;-76
2022/07/25 02:11:16;;;;;;;18.90;9.43;;;;;;;;;;5001818;28;20235;-76
2022/07/25 02:13:45;;;;;;;16.43;9.00;;;;;;;;;;5000701;28;20231;-76
2022/07/25 02:16:12;;;;;;;14.67;9.00;;;;;;;;;;5000731;28;20746;-75
2022/07/25 02:18:40;;;;;;;13.53;9.30;;;;;;;;;;5003633;28;20306;-74
2022/07/25 02:21:08;;;;;;;15.17;9.83;;;;;;;;;;5006159;28;20251;-75
2022/07/25 02:23:36;;;;;;;14.47;9.33;;;;;;;;;;5003456;28;20203;-75
2022/07/25 02:26:03;;;;;;;14.20;8.90;;;;;;;;;;5001022;28;20208;-75
2022/07/25 02:28:30;;;;;;;16.93;9.53;;;;;;;;;;5002100;28;20239;-75
2022/07/25 02:30:59;;;;;;;16.93;9.47;;;;;;;;;;5002751;28;20225;-75
2022/07/25 02:33:26;;;;;;;12.70;9.17;;;;;;;;;;5001133;28;20224;-76
2022/07/25 02:35:53;;;;;;;15.00;9.23;;;;;;;;;;5000203;28;20292;-75
2022/07/25 02:38:20;;;;;;;15.90;9.87;;;;;;;;;;5006719;28;20291;-75
2022/07/25 02:40:48;;;;;;;12.93;8.90;;;;;;;;;;5002961;28;20243;-75
2022/07/25 02:43:15;;;;;;;15.50;9.50;;;;;;;;;;5002775;28;20732;-75
2022/07/25 02:45:42;;;;;;;14.97;9.87;;;;;;;;;;5002059;28;20306;-75
2022/07/25 02:48:11;;;;;;;14.10;9.00;;;;;;;;;;5002986;28;20693;-75
2022/07/25 02:50:38;;;;;;;15.77;9.33;;;;;;;;;;5003054;28;20224;-75
2022/07/25 02:53:06;;;;;;;13.57;9.17;;;;;;;;;;5002261;28;20220;-75
2022/07/25 02:55:33;;;;;;;14.73;9.23;;;;;;;;;;5001372;28;20300;-75
2022/07/25 02:58:00;;;;;;;16.70;9.53;;;;;;;;;;5000547;28;20296;-76
2022/07/25 03:00:28;;;;;;;12.67;8.80;;;;;;;;;;5001307;28;20581;-75
2022/07/25 03:02:55;;;;;;;13.20;9.47;;;;;;;;;;5005756;28;20232;-75
2022/07/25 03:05:23;;;;;;;15.03;9.10;;;;;;;;;;5005296;28;20243;-75
2022/07/25 03:07:51;;;;;;;14.27;9.50;;;;;;;;;;5002090;28;20308;-75
2022/07/25 03:10:18;;;;;;;15.53;10.40;;;;;;;;;;5003916;28;20224;-76
2022/07/25 03:12:45;;;;;;;18.57;10.00;;;;;;;;;;5001489;28;20301;-76
2022/07/25 03:15:13;;;;;;;15.77;9.20;;;;;;;;;;5000775;28;20216;-76
2022/07/25 03:17:40;;;;;;;18.20;9.50;;;;;;;;;;5004539;28;20677;-76
2022/07/25 03:20:09;;;;;;;14.73;9.67;;;;;;;;;;5006040;28;20725;-74
2022/07/25 03:22:38;;;;;;;14.83;9.63;;;;;;;;;;5003684;28;20212;-76
2022/07/25 03:25:05;;;;;;;14.37;10.03;;;;;;;;;;5002212;28;20303;-74
2022/07/25 03:27:32;;;;;;;13.33;9.23;;;;;;;;;;5000935;28;20287;-75
2022/07/25 03:29:59;;;;;;;15.57;9.87;;;;;;;;;;5004245;28;20203;-76
2022/07/25 03:32:27;;;;;;;18.23;9.63;;;;;;;;;;5004143;28;20204;-76
2022/07/25 03:34:54;;;;;;;15.47;9.83;;;;;;;;;;5004869;28;20623;-75
2022/07/25 03:37:21;;;;;;;15.90;10.10;;;;;;;;;;5007828;28;20204;-75
2022/07/25 03:39:52;;;;;;;15.67;10.33;;;;;;;;;;5010089;28;20204;-76
2022/07/25 03:42:19;;;;;;;15.80;9.80;;;;;;;;;;5006768;28;20207;-74
2022/07/25 03:44:46;;;;;;;13.70;9.50;;;;;;;;;;5006984;28;20201;-76
2022/07/25 03:47:13;;;;;;;15.00;9.67;;;;;;;;;;5007106;28;20228;-76
2022/07/25 03:49:40;;;;;;;15.60;9.87;;;;;;;;;;5005890;28;20202;-75
2022/07/25 03:52:08;;;;;;;16.20;10.20;;;;;;;;;;5009407;28;20311;-75
2022/07/25 03:54:35;;;;;;;14.37;9.60;;;;;;;;;;5004497;28;20228;-75
2022/07/25 03:57:04;;;;;;;14.17;9.03;;;;;;;;;;5007077;28;20296;-75
2022/07/25 03:59:31;;;;;;;13.30;8.97;;;;;;;;;;5004269;28;20281;-75
2022/07/25 04:01:58;;;;;;;14.57;9.70;;;;;;;;;;5006312;28;20734;-75
2022/07/25 04:04:25;;;;;;;18.20;10.10;;;;;;;;;;5010126;28;20196;-76
2022/07/25 04:06:52;;;;;;;14.17;9.50;;;;;;;;;;5006886;28;20439;-76
2022/07/25 04:09:20;;;;;;;15.80;10.00;;;;;;;;;;5007783;28;20299;-75
2022/07/25 04:11:47;;;;;;;15.47;9.50;;;;;;;;;;5006767;28;20315;-76
2022/07/25 04:14:15;;;;;;;17.47;9.53;;;;;;;;;;5006093;28;20234;-76
2022/07/25 04:16:43;;;;;;;18.60;9.27;;;;;;;;;;5003709;28;20679;-75
2022/07/25 04:19:10;;;;;;;13.33;9.00;;;;;;;;;;5008820;28;20683;-76
2022/07/25 04:21:37;;;;;;;12.33;8.80;;;;;;;;;;5004159;28;20223;-76
2022/07/25 04:24:04;;;;;;;14.57;8.57;;;;;;;;;;5005756;28;20299;-76
2022/07/25 04:26:31;;;;;;;15.73;8.67;;;;;;;;;;5004179;28;20313;-75
2022/07/25 04:29:01;;;;;;;15.07;8.90;;;;;;;;;;5004488;28;20212;-76
2022/07/25 04:31:30;;;;;;;17.97;8.43;;;;;;;;;;5005472;28;20220;-75
2022/07/25 04:33:57;;;;;;;11.73;7.90;;;;;;;;;;5003372;28;20601;-76
2022/07/25 04:36:25;;;;;;;10.97;7.07;;;;;;;;;;5005941;28;20224;-76
2022/07/25 04:38:52;;;;;;;13.37;7.77;;;;;;;;;;5002577;28;20228;-76
2022/07/25 04:41:20;;;;;;;12.00;7.40;;;;;;;;;;5007613;28;20232;-75
2022/07/25 04:43:47;;;;;;;11.50;7.50;;;;;;;;;;5002727;28;20200;-76
2022/07/25 04:46:18;;;;;;;10.87;7.50;;;;;;;;;;5002239;28;20300;-75
2022/07/25 04:48:46;;;;;;;9.83;7.47;;;;;;;;;;5002180;28;20637;-76
2022/07/25 04:51:13;;;;;;;16.53;8.03;;;;;;;;;;5005377;28;20269;-76
2022/07/25 04:53:41;;;;;;;11.83;7.10;;;;;;;;;;5006184;28;20224;-76
2022/07/25 04:56:08;;;;;;;21.67;8.17;;;;;;;;;;5006338;28;20208;-76
2022/07/25 04:58:35;;;;;;;14.57;8.00;;;;;;;;;;5004334;28;20238;-77
2022/07/25 05:01:02;;;;;;;12.33;7.93;;;;;;;;;;5003460;28;20239;-76
2022/07/25 05:03:29;;;;;;;14.47;7.57;;;;;;;;;;5004300;28;20295;-76
2022/07/25 05:05:58;;;;;;;13.20;7.30;;;;;;;;;;5004374;28;20897;-76
2022/07/25 05:08:25;;;;;;;13.00;7.30;;;;;;;;;;5004650;28;20266;-75
2022/07/25 05:10:52;;;;;;;13.20;7.40;;;;;;;;;;5001387;28;20233;-75
2022/07/25 05:13:20;;;;;;;17.73;7.80;;;;;;;;;;5005287;28;20319;-75
2022/07/25 05:15:47;;;;;;;37.57;8.50;;;;;;;;;;5002751;28;20207;-75
2022/07/25 05:18:14;;;;;;;28.00;8.47;;;;;;;;;;5002008;28;20208;-75
2022/07/25 05:20:41;;;;;;;18.73;7.87;;;;;;;;;;5006796;28;20227;-75
2022/07/25 05:23:10;;;;;;;35.97;8.50;;;;;;;;;;5002325;28;20236;-75
2022/07/25 05:25:37;;;;;;;18.27;7.50;;;;;;;;;;5002855;28;20211;-75
2022/07/25 05:28:04;;;;;;;18.57;7.67;;;;;;;;;;5002148;28;20218;-76
2022/07/25 05:30:32;;;;;;;13.97;7.53;;;;;;;;;;5003942;28;20283;-75
2022/07/25 05:32:59;;;;;;;21.70;7.17;;;;;;;;;;5002715;28;20221;-75
2022/07/25 05:35:26;;;;;;;17.80;7.40;;;;;;;;;;5004067;28;20256;-75
2022/07/25 05:37:53;;;;;;;11.60;7.80;;;;;;;;;;5001337;28;20211;-76
2022/07/25 05:40:23;;;;;;;13.90;7.47;;;;;;;;;;5001676;28;20231;-76
2022/07/25 05:42:50;;;;;;;19.40;7.70;;;;;;;;;;5000673;28;20204;-75
2022/07/25 05:45:17;;;;;;;12.23;7.23;;;;;;;;;;5002480;28;20674;-77
2022/07/25 05:47:44;;;;;;;16.13;7.10;;;;;;;;;;5001289;28;20232;-76
2022/07/25 05:50:12;;;;;;;14.17;7.30;;;;;;;;;;5001197;28;20584;-77
2022/07/25 05:52:39;;;;;;;15.17;7.30;;;;;;;;;;5004383;28;20674;-76
2022/07/25 05:55:06;;;;;;;17.07;6.60;;;;;;;;;;5004874;28;20307;-77
2022/07/25 05:57:35;;;;;;;16.93;7.30;;;;;;;;;;5002554;28;20201;-77
2022/07/25 06:00:03;;;;;;;19.97;8.10;;;;;;;;;;5007782;28;20215;-75
2022/07/25 06:02:30;;;;;;;12.37;7.57;;;;;;;;;;5002686;28;20672;-76
2022/07/25 06:04:57;;;;;;;15.03;7.40;;;;;;;;;;5002518;28;20757;-76
2022/07/25 06:07:25;;;;;;;13.60;7.20;;;;;;;;;;5002479;28;20292;-76
2022/07/25 06:09:52;;;;;;;11.83;6.57;;;;;;;;;;5002716;28;20296;-76
2022/07/25 06:12:19;;;;;;;18.37;7.00;;;;;;;;;;5003033;28;20235;-77
2022/07/25 06:14:48;;;;;;;16.63;7.33;;;;;;;;;;5003186;28;20279;-77
2022/07/25 06:17:15;;;;;;;12.90;6.77;;;;;;;;;;4999580;28;20214;-76
2022/07/25 06:19:42;;;;;;;8.07;6.07;;;;;;;;;;5002617;28;20211;-76
2022/07/25 06:22:10;;;;;;;13.13;6.70;;;;;;;;;;5006182;28;20224;-77
2022/07/25 06:24:37;;;;;;;10.73;5.87;;;;;;;;;;5003727;28;20206;-76
2022/07/25 06:27:04;;;;;;;14.30;6.70;;;;;;;;;;5003565;28;20231;-76
2022/07/25 06:29:31;;;;;;;10.07;6.47;;;;;;;;;;4999507;28;20214;-76
2022/07/25 06:32:00;;;;;;;13.17;7.53;;;;;;;;;;5003649;28;20315;-76
2022/07/25 06:34:27;;;;;;;11.63;7.07;;;;;;;;;;5002487;28;20307;-77
2022/07/25 06:36:56;;;;;;;10.20;6.83;;;;;;;;;;5001569;28;20240;-77
2022/07/25 06:39:23;;;;;;;8.53;6.60;;;;;;;;;;5003577;28;20213;-76
2022/07/25 06:41:51;;;;;;;11.33;6.77;;;;;;;;;;5000995;28;20785;-77
2022/07/25 06:44:18;;;;;;;12.70;6.73;;;;;;;;;;5002067;28;20215;-76
2022/07/25 06:46:45;;;;;;;11.07;6.73;;;;;;;;;;5003286;28;20339;-76
2022/07/25 06:49:14;;;;;;;10.27;6.63;;;;;;;;;;5002549;28;20298;-76
2022/07/25 06:51:41;;;;;;;9.53;6.33;;;;;;;;;;5010081;28;20228;-76
2022/07/25 06:54:08;;;;;;;13.05;6.32;;;;;;;;;;5002223;28;20319;-76
2022/07/25 06:56:35;;;;;;;12.50;6.60;;;;;;;;;;4999978;28;20211;-76
2022/07/25 06:59:02;;;;;;;8.70;6.07;;;;;;;;;;5001202;28;20229;-75
2022/07/25 07:01:30;;;;;;;12.13;6.60;;;;;;;;;;5000843;28;20670;-75
2022/07/25 07:03:57;;;;;;;12.55;6.30;;;;;;;;;;5003986;28;20236;-77
2022/07/25 07:06:25;;;;;;;12.77;6.20;;;;;;;;;;5003554;28;20271;-76
2022/07/25 07:08:53;;;;;;;11.80;6.28;;;;;;;;;;5003277;28;20295;-75
2022/07/25 07:11:20;;;;;;;16.55;6.22;;;;;;;;;;5009119;28;20263;-76
2022/07/25 07:13:47;;;;;;;14.70;6.53;;;;;;;;;;5003104;28;20205;-75
2022/07/25 07:16:14;;;;;;;12.10;6.40;;;;;;;;;;5007171;28;20303;-77
2022/07/25 07:18:41;;;;;;;16.27;6.00;;;;;;;;;;5004665;28;20208;-77
2022/07/25 07:21:09;;;;;;;11.40;6.30;;;;;;;;;;5004214;28;20261;-77
2022/07/25 07:23:38;;;;;;;13.05;6.20;;;;;;;;;;5007274;28;20216;-76
2022/07/25 07:26:05;;;;;;;15.95;6.18;;;;;;;;;;5004915;28;20211;-76
2022/07/25 07:28:32;;;;;;;11.13;5.90;;;;;;;;;;5001168;28;20702;-76
2022/07/25 07:30:59;;;;;;;12.82;6.03;;;;;;;;;;5003480;28;20780;-76
2022/07/25 07:33:26;;;;;;;13.50;5.78;;;;;;;;;;4999404;28;20215;-76
2022/07/25 07:35:55;;;;;;;19.40;6.53;;;;;;;;;;5002247;28;20235;-77
2022/07/25 07:38:22;;;;;;;10.07;6.03;;;;;;;;;;5001518;28;20729;-77
2022/07/25 07:40:51;;;;;;;9.38;6.05;;;;;;;;;;5008261;28;20239;-75
2022/07/25 07:43:18;;;;;;;11.88;6.18;;;;;;;;;;5003808;28;20205;-76
2022/07/25 07:45:45;;;;;;;13.57;5.47;;;;;;;;;;5002810;28;20667;-76
2022/07/25 07:48:13;;;;;;;13.45;6.20;;;;;;;;;;5001482;28;20213;-77
2022/07/25 07:50:40;;;;;;;13.50;5.70;;;;;;;;;;5002355;28;20315;-77
2022/07/25 07:53:07;;;;;;;18.90;6.00;;;;;;;;;;5004598;28;20205;-76
2022/07/25 07:55:47;;;;;;;12.07;5.72;;;;;;;;;;5001627;28;20229;-77
2022/07/25 07:58:16;;;;;;;12.10;5.35;;;;;;;;;;5002898;28;20212;-75
2022/07/25 08:00:44;;;;;;;10.02;5.57;;;;;;;;;;5003989;28;20244;-76
2022/07/25 08:03:11;;;;;;;15.15;6.18;;;;;;;;;;5000852;28;20216;-76
2022/07/25 08:05:39;;;;;;;13.23;6.22;;;;;;;;;;5003833;28;21481;-77
2022/07/25 08:08:07;;;;;;;14.82;5.97;;;;;;;;;;5002260;28;20206;-77
2022/07/25 08:10:36;;;;;;;16.17;5.90;;;;;;;;;;5003911;28;20278;-75
2022/07/25 08:13:04;;;;;;;15.20;6.20;;;;;;;;;;5004325;28;20687;-77
2022/07/25 08:15:32;;;;;;;10.18;4.78;;;;;;;;;;5003381;28;20221;-77
2022/07/25 08:18:00;;;;;;;11.45;5.40;;;;;;;;;;5005940;28;20231;-74
2022/07/25 08:20:27;;;;;;;9.02;5.45;;;;;;;;;;5001189;28;20264;-76
2022/07/25 08:22:55;;;;;;;10.48;5.40;;;;;;;;;;4998685;28;20295;-77
2022/07/25 08:25:22;;;;;;;14.63;5.13;;;;;;;;;;5004677;28;20288;-76
2022/07/25 08:27:49;;;;;;;7.65;5.10;;;;;;;;;;5007112;28;20300;-76
2022/07/25 08:30:17;;;;;;;9.77;5.25;;;;;;;;;;5004861;28;20306;-76
2022/07/25 08:32:50;;;;;;;8.93;4.88;;;;;;;;;;5008161;28;20291;-77
2022/07/25 08:35:18;;;;;;;6.72;4.97;;;;;;;;;;5007019;28;20222;-76
2022/07/25 08:37:45;;;;;;;11.23;6.03;;;;;;;;;;5006143;28;20204;-78
2022/07/25 08:40:13;;;;;;;9.93;5.78;;;;;;;;;;5006264;28;20652;-77
2022/07/25 08:42:41;;;;;;;9.50;5.20;;;;;;;;;;5003570;28;20215;-76
2022/07/25 08:45:11;;;;;;;8.15;5.80;;;;;;;;;;5003849;28;20196;-77
2022/07/25 08:47:40;;;;;;;9.75;5.63;;;;;;;;;;5007170;28;20204;-77
2022/07/25 08:50:10;;;;;;;8.85;5.10;;;;;;;;;;5005335;28;20240;-77
2022/07/25 08:52:38;;;;;;;8.82;5.97;;;;;;;;;;5004046;28;20273;-77
2022/07/25 08:55:06;;;;;;;10.90;6.35;;;;;;;;;;5001841;28;20229;-77
2022/07/25 08:57:34;;;;;;;12.05;5.63;;;;;;;;;;5005972;28;20285;-77
2022/07/25 09:00:01;;;;;;;8.60;5.70;;;;;;;;;;5010283;28;20216;-77
2022/07/25 09:02:29;;;;;;;7.20;5.40;;;;;;;;;;5005868;28;20303;-77
2022/07/25 09:04:57;;;;;;;9.10;5.72;;;;;;;;;;5007633;28;20243;-77
2022/07/25 09:07:33;;;;;;;9.15;6.00;;;;;;;;;;5004707;28;20208;-76
2022/07/25 09:10:01;;;;;;;7.60;5.18;;;;;;;;;;5008461;28;20556;-75
2022/07/25 09:12:28;;;;;;;10.52;5.53;;;;;;;;;;5003836;28;20209;-75
2022/07/25 09:14:56;;;;;;;8.48;4.97;;;;;;;;;;5007492;28;20594;-77
2022/07/25 09:17:23;;;;;;;6.60;4.87;;;;;;;;;;5008543;28;20291;-75
2022/07/25 09:19:53;;;;;;;8.03;5.07;;;;;;;;;;5009050;28;20287;-75
2022/07/25 09:22:21;;;;;;;8.20;4.87;;;;;;;;;;5004257;28;20207;-76
2022/07/25 09:24:50;;;;;;;7.22;4.88;;;;;;;;;;5006641;28;20251;-75
2022/07/25 09:27:17;;;;;;;7.67;4.67;;;;;;;;;;5004209;28;20209;-77
2022/07/25 09:29:44;;;;;;;6.50;4.73;;;;;;;;;;5007747;28;20238;-77
2022/07/25 09:32:16;;;;;;;9.25;5.00;;;;;;;;;;5007136;28;20314;-78
2022/07/25 09:34:43;;;;;;;11.60;5.47;;;;;;;;;;5011218;28;20225;-76
2022/07/25 09:37:12;;;;;;;10.93;5.23;;;;;;;;;;5004037;28;20590;-78
2022/07/25 09:39:41;;;;;;;11.20;4.80;;;;;;;;;;5006042;28;20208;-77
2022/07/25 09:42:19;;;;;;;16.75;5.25;;;;;;;;;;5007292;28;20567;-78
2022/07/25 09:44:57;;;;;;;9.65;5.05;;;;;;;;;;5005415;28;20854;-76
2022/07/25 09:47:25;;;;;;;9.77;5.05;;;;;;;;;;5005011;28;20291;-76
2022/07/25 09:49:52;;;;;;;5.75;4.63;;;;;;;;;;5006448;28;20200;-77
2022/07/25 09:52:19;;;;;;;6.53;4.75;;;;;;;;;;5004133;28;20263;-77
2022/07/25 09:54:47;;;;;;;15.70;5.07;;;;;;;;;;5007015;28;20326;-77
2022/07/25 09:57:14;;;;;;;12.43;5.20;;;;;;;;;;5006268;28;20612;-77
2022/07/25 09:59:43;;;;;;;9.55;5.20;;;;;;;;;;5007584;28;20334;-77
2022/07/25 10:02:12;;;;;;;9.85;5.40;;;;;;;;;;5003080;28;20220;-77
2022/07/25 10:04:45;;;;;;;8.23;5.10;;;;;;;;;;5007498;28;20647;-77
2022/07/25 10:07:14;;;;;;;14.45;5.63;;;;;;;;;;5004711;28;20207;-78
2022/07/25 10:09:42;;;;;;;8.18;5.18;;;;;;;;;;5006079;28;20206;-77
2022/07/25 10:12:11;;;;;;;9.50;5.50;;;;;;;;;;5004691;28;20323;-76
2022/07/25 10:14:39;;;;;;;13.80;6.17;;;;;;;;;;5007091;28;20208;-76
2022/07/25 10:17:08;;;;;;;7.32;5.18;;;;;;;;;;5004599;28;20315;-75
2022/07/25 10:19:42;;;;;;;10.70;5.43;;;;;;;;;;4996969;28;20221;-75
2022/07/25 10:22:10;;;;;;;10.68;5.57;;;;;;;;;;5004905;28;20231;-75
2022/07/25 10:24:38;;;;;;;8.38;5.70;;;;;;;;;;5001350;28;20216;-75
2022/07/25 10:27:10;;;;;;;7.97;5.90;;;;;;;;;;5000375;28;20212;-75
2022/07/25 10:29:37;;;;;;;6.57;5.40;;;;;;;;;;5003395;28;20205;-74
2022/07/25 10:32:10;;;;;;;10.50;6.10;;;;;;;;;;5004373;28;20217;-75
2022/07/25 10:34:38;;;;;;;12.57;6.00;;;;;;;;;;5000192;28;20681;-76
2022/07/25 10:37:13;;;;;;;10.00;5.90;;;;;;;;;;5004291;28;20233;-75
2022/07/25 10:39:41;;;;;;;9.00;5.88;;;;;;;;;;5008337;28;20291;-76
2022/07/25 10:42:13;;;;;;;9.27;5.87;;;;;;;;;;5005218;28;20251;-76
2022/07/25 10:44:41;;;;;;;8.95;5.65;;;;;;;;;;5003319;28;20663;-76
2022/07/25 10:47:11;;;;;;;9.23;5.57;;;;;;;;;;5004607;28;20220;-74
2022/07/25 10:49:40;;;;;;;8.70;5.55;;;;;;;;;;5000993;28;20203;-75
2022/07/25 10:52:07;;;;;;;10.80;5.40;;;;;;;;;;5002646;28;20271;-75
2022/07/25 10:54:35;;;;;;;9.88;5.75;;;;;;;;;;5005785;28;20204;-74
2022/07/25 10:57:02;;;;;;;7.88;5.50;;;;;;;;;;5007592;28;20251;-74
2022/07/25 10:59:31;;;;;;;9.57;5.43;;;;;;;;;;5004261;28;20219;-75
2022/07/25 11:01:58;;;;;;;9.38;6.07;;;;;;;;;;5005810;28;20236;-75
2022/07/25 11:04:27;;;;;;;10.80;6.15;;;;;;;;;;5002075;28;20212;-75
2022/07/25 11:06:55;;;;;;;8.00;5.68;;;;;;;;;;5002942;28;20737;-75
2022/07/25 11:09:24;;;;;;;9.17;5.67;;;;;;;;;;5001152;28;20678;-75
2022/07/25 11:11:52;;;;;;;11.27;5.20;;;;;;;;;;5004097;28;20231;-75
2022/07/25 11:14:20;;;;;;;9.37;4.90;;;;;;;;;;5002136;28;20209;-75
2022/07/25 11:16:48;;;;;;;14.27;5.47;;;;;;;;;;5000667;28;20675;-75
2022/07/25 11:19:20;;;;;;;9.33;4.77;;;;;;;;;;5000666;28;20208;-75
2022/07/25 11:21:49;;;;;;;8.17;5.20;;;;;;;;;;5005721;28;20260;-76
2022/07/25 11:24:17;;;;;;;12.03;4.93;;;;;;;;;;5003338;28;20278;-76
2022/07/25 11:26:49;;;;;;;7.53;5.20;;;;;;;;;;5005123;28;20196;-75
2022/07/25 11:29:19;;;;;;;8.63;4.93;;;;;;;;;;5003596;28;20297;-75
2022/07/25 11:31:52;;;;;;;6.87;5.30;;;;;;;;;;5006554;28;20242;-75
2022/07/25 11:34:19;;;;;;;9.07;5.63;;;;;;;;;;5006407;28;20227;-76
2022/07/25 11:36:46;;;;;;;9.77;5.57;;;;;;;;;;5002276;28;20224;-77
2022/07/25 11:39:17;;;;;;;7.33;4.97;;;;;;;;;;4998763;28;20201;-74
2022/07/25 11:41:44;;;;;;;7.63;5.40;;;;;;;;;;5006668;28;20220;-75
2022/07/25 11:44:11;;;;;;;8.50;5.37;;;;;;;;;;5002489;28;20531;-75
2022/07/25 11:46:43;;;;;;;7.93;4.90;;;;;;;;;;5001846;28;20231;-75
2022/07/25 11:49:11;;;;;;;13.67;5.67;;;;;;;;;;5005584;28;20287;-75
2022/07/25 11:51:38;;;;;;;8.50;5.47;;;;;;;;;;5007435;28;20227;-75
2022/07/25 11:54:10;;;;;;;9.13;5.43;;;;;;;;;;5003214;28;20299;-75
2022/07/25 11:56:40;;;;;;;7.07;5.17;;;;;;;;;;5007472;28;20243;-75
2022/07/25 11:59:07;;;;;;;10.30;5.47;;;;;;;;;;5007095;28;20296;-74
2022/07/25 12:01:35;;;;;;;8.20;5.27;;;;;;;;;;5005381;28;20235;-75
2022/07/25 12:04:09;;;;;;;10.53;5.10;;;;;;;;;;5004148;28;20673;-75
2022/07/25 12:06:36;;;;;;;10.40;5.20;;;;;;;;;;5007192;28;20322;-76
2022/07/25 12:09:10;;;;;;;10.87;5.70;;;;;;;;;;5010220;28;20205;-76
2022/07/25 12:11:39;;;;;;;8.50;5.50;;;;;;;;;;5005285;28;20234;-76
2022/07/25 12:14:07;;;;;;;8.53;5.77;;;;;;;;;;5008016;28;20302;-75
2022/07/25 12:16:35;;;;;;;11.33;5.93;;;;;;;;;;5008168;28;20227;-77
2022/07/25 12:19:02;;;;;;;8.63;5.53;;;;;;;;;;5007699;28;20232;-76
2022/07/25 12:21:30;;;;;;;8.70;5.70;;;;;;;;;;5008924;28;20237;-77
2022/07/25 12:23:57;;;;;;;8.80;5.97;;;;;;;;;;5006930;28;20211;-76
2022/07/25 12:26:25;;;;;;;8.70;6.00;;;;;;;;;;5008011;28;20308;-77
2022/07/25 12:28:53;;;;;;;11.93;6.23;;;;;;;;;;5007881;28;20240;-78
2022/07/25 12:31:23;;;;;;;8.17;5.70;;;;;;;;;;5006613;28;20486;-76
2022/07/25 12:33:51;;;;;;;8.87;5.80;;;;;;;;;;5008475;28;20229;-76
2022/07/25 12:36:18;;;;;;;9.13;5.73;;;;;;;;;;5006395;28;20600;-77
2022/07/25 12:38:46;;;;;;;12.77;5.97;;;;;;;;;;5008304;28;20798;-78
2022/07/25 12:41:13;;;;;;;10.00;6.00;;;;;;;;;;5010572;28;20808;-77
2022/07/25 12:43:40;;;;;;;9.27;6.50;;;;;;;;;;5009859;28;20271;-77
2022/07/25 12:46:09;;;;;;;11.67;6.17;;;;;;;;;;5007226;28;20628;-77
2022/07/25 12:48:37;;;;;;;9.70;6.30;;;;;;;;;;5004899;28;20682;-76
2022/07/25 12:51:04;;;;;;;7.97;6.17;;;;;;;;;;5008191;28;20224;-76
2022/07/25 12:53:32;;;;;;;11.30;6.33;;;;;;;;;;5007643;28;20287;-76
2022/07/25 12:55:59;;;;;;;9.53;6.00;;;;;;;;;;5002359;28;20310;-76
2022/07/25 12:58:26;;;;;;;8.07;6.07;;;;;;;;;;5006873;28;20231;-76
2022/07/25 13:00:53;;;;;;;9.27;6.13;;;;;;;;;;5007793;28;20228;-76
2022/07/25 13:03:22;;;;;;;14.43;6.80;;;;;;;;;;5007816;28;20239;-77
2022/07/25 13:05:49;;;;;;;9.43;6.17;;;;;;;;;;5005306;28;20237;-76
2022/07/25 13:08:16;;;;;;;8.87;5.90;;;;;;;;;;4999737;28;20218;-77
2022/07/25 13:10:43;;;;;;;11.67;6.33;;;;;;;;;;5006591;28;20224;-77
2022/07/25 13:13:12;;;;;;;8.53;5.80;;;;;;;;;;5005626;28;20200;-76
2022/07/25 13:15:39;;;;;;;10.23;6.30;;;;;;;;;;5007086;28;20210;-77
2022/07/25 13:18:07;;;;;;;10.73;5.83;;;;;;;;;;5006229;28;20288;-77
2022/07/25 13:20:36;;;;;;;11.37;6.20;;;;;;;;;;5007037;28;20220;-77
2022/07/25 13:23:07;;;;;;;11.47;5.30;;;;;;;;;;5005750;28;20288;-76
2022/07/25 13:25:35;;;;;;;10.60;5.43;;;;;;;;;;5008935;28;20204;-77
2022/07/25 13:28:03;;;;;;;8.43;6.00;;;;;;;;;;5016948;28;20211;-77
2022/07/25 13:30:30;;;;;;;16.60;5.90;;;;;;;;;;5012132;28;20295;-77
2022/07/25 13:32:57;;;;;;;12.60;5.80;;;;;;;;;;5007048;28;20205;-77
2022/07/25 13:35:25;;;;;;;8.10;5.53;;;;;;;;;;5004989;28;20244;-77
2022/07/25 13:37:53;;;;;;;8.77;5.90;;;;;;;;;;5006340;28;20217;-77
2022/07/25 13:40:21;;;;;;;10.53;5.50;;;;;;;;;;5005954;28;20256;-77
2022/07/25 13:42:48;;;;;;;7.80;5.00;;;;;;;;;;5011613;28;20705;-77
2022/07/25 13:45:15;;;;;;;8.40;5.47;;;;;;;;;;5011700;28;20289;-77
2022/07/25 13:47:42;;;;;;;8.07;5.30;;;;;;;;;;5008080;28;20206;-77
2022/07/25 13:50:10;;;;;;;7.20;5.03;;;;;;;;;;5006414;28;20287;-77
2022/07/25 13:52:37;;;;;;;7.87;4.93;;;;;;;;;;5006308;28;20214;-78
2022/07/25 13:55:06;;;;;;;7.07;4.80;;;;;;;;;;5009171;28;20209;-77
2022/07/25 13:57:33;;;;;;;10.10;4.87;;;;;;;;;;5007820;28;20228;-76
2022/07/25 14:00:01;;;;;;;6.23;4.80;;;;;;;;;;5006553;28;20707;-77
2022/07/25 14:02:28;;;;;;;7.77;4.60;;;;;;;;;;5005483;28;20219;-77
2022/07/25 14:04:55;;;;;;;10.43;4.77;;;;;;;;;;5009092;28;20295;-77
2022/07/25 14:07:22;;;;;;;7.90;4.70;;;;;;;;;;5009515;28;20200;-77
2022/07/25 14:09:49;;;;;;;7.33;4.60;;;;;;;;;;5004018;28;20263;-77
2022/07/25 14:12:18;;;;;;;10.00;4.77;;;;;;;;;;5005679;28;20290;-77
2022/07/25 14:14:45;;;;;;;5.97;4.70;;;;;;;;;;5005292;28;20294;-78
2022/07/25 14:17:12;;;;;;;10.30;4.63;;;;;;;;;;5003746;28;20224;-77
2022/07/25 14:19:40;;;;;;;5.20;4.47;;;;;;;;;;5007430;28;20216;-77
2022/07/25 14:22:07;;;;;;;6.27;4.93;;;;;;;;;;5008913;28;20312;-76
2022/07/25 14:24:34;;;;;;;8.07;4.77;;;;;;;;;;5006760;28;20226;-77
2022/07/25 14:27:01;;;;;;;5.40;4.40;;;;;;;;;;5006958;28;20197;-77
2022/07/25 14:29:30;;;;;;;9.77;5.20;;;;;;;;;;5005142;28;20510;-77
2022/07/25 14:31:57;;;;;;;11.77;5.10;;;;;;;;;;5006319;28;20235;-77
2022/07/25 14:34:24;;;;;;;7.73;4.83;;;;;;;;;;5007765;28;20628;-77
2022/07/25 14:36:51;;;;;;;9.63;5.23;;;;;;;;;;5013707;28;20236;-76